Time;durP1;ratioP1;P1;durP2;ratioP2;P2;SDS_P1;SDS_P2;PMS_P1;PMS_P2;Temp;Humidity;BMP_temperature;BMP_pressure;BME280_temperature;BME280_humidity;BME280_pressure;Samples;Min_cycle;Max_cycle;Signal;HPM_P1;HPM_P2
2023/12/01 00:04:45;;;;;;;201.90;64.80;;;;;;;-5.15;100.00;99523.71;4781959;58;1143156;-74
2023/12/01 00:09:52;;;;;;;213.13;64.70;;;;;;;-5.26;100.00;99520.62;4878100;56;1143048;-73
2023/12/01 00:14:57;;;;;;;180.63;57.90;;;;;;;-5.28;100.00;99522.39;4850937;59;1142991;-74
2023/12/01 00:20:03;;;;;;;175.03;54.65;;;;;;;-5.26;100.00;99524.48;4850718;59;1143298;-75
2023/12/01 00:25:09;;;;;;;192.45;61.20;;;;;;;-5.25;100.00;99527.46;4850566;59;1142850;-74
2023/12/01 00:30:15;;;;;;;255.90;73.90;;;;;;;-5.23;100.00;99529.11;4870072;59;1143039;-75
2023/12/01 00:35:21;;;;;;;243.50;73.43;;;;;;;-5.29;100.00;99533.58;4851238;59;1142843;-74
2023/12/01 00:40:26;;;;;;;430.13;149.05;;;;;;;-5.26;100.00;99531.77;4856776;58;1142810;-73
2023/12/01 00:45:32;;;;;;;153.80;50.28;;;;;;;-5.36;100.00;99540.67;4833159;57;1145033;-74
2023/12/01 00:50:39;;;;;;;157.00;50.23;;;;;;;-5.76;100.00;99548.64;4775047;59;1143031;-75
2023/12/01 00:55:45;;;;;;;190.40;59.97;;;;;;;-6.01;100.00;99547.64;4863882;58;1142803;-74
2023/12/01 01:00:50;;;;;;;207.10;59.80;;;;;;;-5.92;100.00;99548.23;4854763;58;1143061;-75
2023/12/01 01:05:56;;;;;;;193.70;60.37;;;;;;;-5.80;100.00;99545.73;4751547;59;1143267;-75
2023/12/01 01:11:01;;;;;;;166.92;53.30;;;;;;;-5.80;100.00;99539.30;4803079;60;1143166;-75
2023/12/01 01:16:09;;;;;;;377.30;105.20;;;;;;;-5.85;100.00;99543.31;4802811;59;1143071;-75
2023/12/01 01:21:15;;;;;;;293.93;83.87;;;;;;;-5.92;100.00;99548.68;4821601;59;1144972;-75
2023/12/01 01:26:21;;;;;;;245.40;75.50;;;;;;;-5.94;100.00;99550.00;4802849;60;1142800;-75
2023/12/01 01:31:27;;;;;;;240.77;70.63;;;;;;;-6.00;100.00;99557.06;4802867;60;1143079;-75
2023/12/01 01:36:32;;;;;;;230.60;69.83;;;;;;;-6.00;100.00;99556.62;4887204;58;1142621;-75
2023/12/01 01:41:38;;;;;;;239.93;74.93;;;;;;;-6.10;100.00;99548.70;4883387;58;1142952;-74
2023/12/01 01:46:45;;;;;;;225.57;74.33;;;;;;;-6.20;100.00;99544.69;4882915;58;1142807;-74
2023/12/01 01:51:52;;;;;;;196.00;67.97;;;;;;;-6.26;100.00;99534.58;4845469;59;1142803;-74
2023/12/01 01:56:58;;;;;;;188.37;66.60;;;;;;;-6.28;100.00;99542.77;4842289;59;1142989;-75
2023/12/01 02:02:04;;;;;;;176.83;61.60;;;;;;;-6.34;100.00;99539.89;4810111;59;1143034;-74
2023/12/01 02:07:26;;;;;;;191.53;65.45;;;;;;;-6.28;100.00;99541.48;4877936;59;1143103;-74
2023/12/01 02:12:32;;;;;;;154.20;53.33;;;;;;;-6.22;100.00;99544.73;4893022;59;1143013;-74
2023/12/01 02:17:39;;;;;;;178.97;53.13;;;;;;;-6.27;100.00;99548.32;4878993;59;1143066;-74
2023/12/01 02:22:45;;;;;;;141.07;43.33;;;;;;;-6.43;100.00;99553.00;4878290;59;1142906;-74
2023/12/01 02:27:51;;;;;;;106.93;36.50;;;;;;;-6.57;100.00;99553.77;4898256;59;1143105;-75
2023/12/01 02:32:57;;;;;;;113.23;38.37;;;;;;;-6.57;100.00;99549.44;4914040;58;1143010;-74
2023/12/01 02:38:03;;;;;;;138.82;39.78;;;;;;;-6.56;100.00;99550.28;4943314;58;1142850;-75
2023/12/01 02:43:08;;;;;;;159.10;51.10;;;;;;;-6.57;100.00;99562.30;4942578;58;1143022;-74
2023/12/01 02:48:15;;;;;;;119.17;43.70;;;;;;;-6.58;100.00;99562.36;4902429;59;1143034;-74
2023/12/01 02:53:20;;;;;;;128.47;42.20;;;;;;;-6.49;100.00;99560.84;4838871;59;1142721;-75
2023/12/01 02:58:26;;;;;;;88.10;34.73;;;;;;;-6.41;100.00;99559.77;4806205;59;1142970;-75
2023/12/01 03:03:31;;;;;;;84.87;31.60;;;;;;;-6.41;100.00;99559.77;4851549;59;1140959;-74
2023/12/01 03:08:37;;;;;;;83.33;29.67;;;;;;;-6.44;100.00;99557.73;4879038;59;1140998;-73
2023/12/01 03:13:43;;;;;;;66.30;25.43;;;;;;;-6.57;100.00;99558.44;4889257;59;1140889;-75
2023/12/01 03:18:49;;;;;;;78.17;29.47;;;;;;;-6.70;100.00;99555.76;4909589;59;1141067;-74
2023/12/01 03:23:54;;;;;;;74.87;28.97;;;;;;;-6.76;100.00;99558.48;4890436;59;1140975;-74
2023/12/01 03:29:00;;;;;;;80.43;31.33;;;;;;;-6.78;100.00;99550.81;4951407;58;1140777;-74
2023/12/01 03:34:07;;;;;;;66.53;26.45;;;;;;;-6.73;100.00;99548.58;4965864;58;1150549;-73
2023/12/01 03:39:13;;;;;;;75.50;26.50;;;;;;;-6.70;100.00;99551.05;4856365;59;1140695;-73
2023/12/01 03:44:18;;;;;;;80.97;28.37;;;;;;;-6.72;100.00;99554.94;4875501;59;1140916;-73
2023/12/01 03:49:24;;;;;;;94.00;28.37;;;;;;;-6.73;100.00;99543.00;4887924;58;1140916;-73
2023/12/01 03:54:29;;;;;;;117.97;32.97;;;;;;;-6.71;100.00;99543.78;4910695;59;1141244;-73
2023/12/01 03:59:35;;;;;;;93.07;31.67;;;;;;;-6.90;100.00;99549.81;4906421;58;1142860;-73
2023/12/01 04:04:40;;;;;;;88.90;28.57;;;;;;;-6.92;100.00;99553.28;4927934;58;1141051;-75
2023/12/01 04:09:46;;;;;;;90.23;27.43;;;;;;;-7.00;100.00;99562.88;4914457;59;1140870;-73
2023/12/01 04:14:52;;;;;;;83.10;30.87;;;;;;;-7.04;100.00;99562.56;4895268;59;1140871;-74
2023/12/01 04:19:58;;;;;;;104.85;37.65;;;;;;;-7.04;100.00;99567.26;4887021;59;1140987;-76
2023/12/01 04:25:06;;;;;;;75.08;28.38;;;;;;;-7.10;100.00;99567.37;4900779;58;1143287;-76
2023/12/01 04:30:17;;;;;;;103.55;36.90;;;;;;;-7.19;100.00;99560.73;4993436;58;1140909;-75
2023/12/01 04:35:19;;;;;;;143.83;46.93;;;;;;;-7.24;100.00;99554.83;4972482;58;1143111;-75
2023/12/01 04:40:27;;;;;;;152.17;45.23;;;;;;;-7.32;100.00;99563.55;4897903;58;1142992;-76
2023/12/01 04:45:37;;;;;;;188.80;55.67;;;;;;;-7.41;100.00;99556.90;4874196;59;1143118;-75
2023/12/01 04:50:49;;;;;;;185.73;55.23;;;;;;;-7.43;100.00;99566.35;4821624;59;1143120;-75
2023/12/01 04:55:55;;;;;;;252.97;71.83;;;;;;;-7.52;100.00;99571.69;4895162;59;1143160;-75
2023/12/01 05:01:01;;;;;;;208.17;64.60;;;;;;;-7.66;100.00;99576.24;4912625;59;1143057;-75
2023/12/01 05:06:06;;;;;;;155.93;53.27;;;;;;;-7.67;100.00;99582.25;4891370;59;1143037;-75
2023/12/01 05:11:12;;;;;;;174.87;51.73;;;;;;;-7.66;100.00;99587.36;4891078;59;1143070;-76
2023/12/01 05:16:18;;;;;;;235.23;63.20;;;;;;;-7.63;100.00;99595.41;4910084;59;1143066;-75
2023/12/01 05:21:24;;;;;;;249.77;65.57;;;;;;;-7.66;100.00;99595.50;4891934;58;1143062;-75
2023/12/01 05:26:29;;;;;;;196.57;53.83;;;;;;;-7.63;100.00;99604.40;4894816;59;1143152;-75
2023/12/01 05:31:35;;;;;;;174.50;49.80;;;;;;;-7.52;100.00;99610.20;4913250;59;1143289;-75
2023/12/01 05:36:40;;;;;;;189.03;53.00;;;;;;;-7.39;100.00;99611.65;4894335;59;1143044;-75
2023/12/01 05:41:46;;;;;;;182.83;48.43;;;;;;;-7.35;100.00;99612.01;4856015;58;1142815;-75
2023/12/01 05:46:52;;;;;;;148.07;45.67;;;;;;;-7.28;100.00;99622.55;4897545;59;1143187;-75
2023/12/01 05:51:58;;;;;;;137.73;43.53;;;;;;;-7.31;100.00;99623.89;4894680;59;1143061;-75
2023/12/01 05:57:06;;;;;;;160.17;51.07;;;;;;;-7.37;100.00;99624.03;4894824;59;1143786;-75
2023/12/01 06:02:11;;;;;;;149.83;54.20;;;;;;;-7.42;100.00;99622.41;4894310;58;1142866;-75
2023/12/01 06:07:18;;;;;;;134.87;49.33;;;;;;;-7.45;100.00;99622.88;4914267;58;1143096;-75
2023/12/01 06:12:23;;;;;;;144.97;52.37;;;;;;;-7.50;100.00;99620.01;4894985;58;1142830;-75
2023/12/01 06:17:30;;;;;;;147.70;50.70;;;;;;;-7.45;100.00;99628.02;4919029;58;1143291;-75
2023/12/01 06:22:36;;;;;;;169.93;52.83;;;;;;;-7.35;100.00;99627.86;4811740;60;1143117;-75
2023/12/01 06:27:42;;;;;;;170.10;53.78;;;;;;;-7.35;100.00;99633.84;4791400;60;1143015;-76
2023/12/01 06:32:48;;;;;;;163.27;58.07;;;;;;;-7.33;100.00;99632.05;4883485;58;1143206;-75
2023/12/01 06:37:54;;;;;;;137.37;50.83;;;;;;;-7.52;100.00;99638.00;4905937;57;1142737;-76
2023/12/01 06:42:59;;;;;;;151.67;55.20;;;;;;;-7.61;100.00;99641.16;4891266;58;1252368;-76
2023/12/01 06:48:05;;;;;;;181.30;61.80;;;;;;;-7.56;100.00;99646.63;4887574;59;1142936;-75
2023/12/01 06:53:10;;;;;;;291.67;97.27;;;;;;;-7.55;100.00;99646.20;4887655;58;1142903;-75
2023/12/01 06:58:16;;;;;;;344.90;101.90;;;;;;;-7.57;100.00;99647.50;4897762;57;1143302;-75
2023/12/01 07:03:22;;;;;;;231.93;69.63;;;;;;;-7.64;100.00;99637.39;4879492;58;1144897;-76
2023/12/01 07:08:28;;;;;;;253.20;72.10;;;;;;;-7.65;100.00;99643.39;4886980;58;1142963;-76
2023/12/01 07:13:34;;;;;;;289.67;100.00;;;;;;;-7.61;100.00;99650.14;4912816;58;1142926;-75
2023/12/01 07:18:40;;;;;;;273.00;84.03;;;;;;;-7.50;100.00;99655.52;4885197;58;1144952;-75
2023/12/01 07:23:47;;;;;;;240.93;83.57;;;;;;;-7.48;100.00;99658.87;4958647;57;1142866;-75
2023/12/01 07:28:52;;;;;;;226.95;89.28;;;;;;;-7.42;100.00;99658.36;4882091;57;1142959;-76
2023/12/01 07:33:58;;;;;;;192.13;75.53;;;;;;;-7.48;100.00;99667.86;4880314;58;1142837;-75
2023/12/01 07:39:04;;;;;;;138.17;57.10;;;;;;;-7.47;100.00;99667.43;4883225;57;1142976;-76
2023/12/01 07:44:10;;;;;;;177.60;70.45;;;;;;;-7.19;100.00;99662.64;4805447;58;1149960;-75
2023/12/01 07:49:15;;;;;;;147.17;59.33;;;;;;;-6.97;100.00;99669.47;4765043;59;1142872;-75
2023/12/01 07:54:22;;;;;;;170.17;63.10;;;;;;;-6.76;100.00;99668.59;4854848;57;1143093;-76
2023/12/01 07:59:27;;;;;;;143.43;54.67;;;;;;;-6.86;100.00;99685.06;4812756;57;1142844;-76
2023/12/01 08:04:33;;;;;;;130.60;53.90;;;;;;;-6.66;100.00;99682.53;4733223;59;1142893;-75
2023/12/01 08:09:42;;;;;;;127.67;48.50;;;;;;;-6.26;100.00;99680.76;4757187;57;1143038;-75
2023/12/01 08:14:47;;;;;;;102.47;44.50;;;;;;;-6.05;100.00;99691.85;4785434;58;1142906;-75
2023/12/01 08:19:53;;;;;;;93.77;37.23;;;;;;;-5.81;100.00;99688.27;4892396;57;1142846;-75
2023/12/01 08:24:58;;;;;;;108.00;42.13;;;;;;;-5.58;100.00;99693.67;4868431;57;1140618;-75
2023/12/01 08:30:05;;;;;;;103.53;40.97;;;;;;;-5.50;100.00;99695.59;4835343;58;1142826;-75
2023/12/01 08:35:11;;;;;;;119.30;45.37;;;;;;;-5.53;100.00;99705.16;4816648;59;1142859;-75
2023/12/01 08:40:16;;;;;;;103.27;37.13;;;;;;;-5.66;100.00;99716.22;4836550;59;1143022;-75
2023/12/01 08:45:22;;;;;;;72.20;29.07;;;;;;;-5.65;100.00;99717.88;4810229;58;1188076;-75
2023/12/01 08:50:28;;;;;;;83.60;32.40;;;;;;;-5.64;100.00;99717.00;4727743;57;1144171;-75
2023/12/01 08:55:33;;;;;;;101.33;39.10;;;;;;;-5.68;100.00;99716.25;4739580;59;1174436;-75
2023/12/01 09:00:40;;;;;;;155.27;48.03;;;;;;;-5.72;100.00;99725.37;4758042;59;1238692;-75
2023/12/01 09:05:45;;;;;;;69.75;25.02;;;;;;;-5.72;100.00;99725.37;4800107;59;1142961;-75
2023/12/01 09:10:51;;;;;;;75.90;25.57;;;;;;;-5.69;100.00;99730.45;4823109;59;1140942;-75
2023/12/01 09:15:56;;;;;;;97.30;41.47;;;;;;;-5.67;100.00;99741.13;4776184;58;1141009;-75
2023/12/01 09:21:02;;;;;;;113.68;43.08;;;;;;;-5.64;100.00;99741.91;4807714;58;1140838;-75
2023/12/01 09:26:08;;;;;;;96.50;35.30;;;;;;;-5.54;100.00;99733.09;4849968;58;1143020;-76
2023/12/01 09:31:14;;;;;;;96.47;39.48;;;;;;;-5.46;100.00;99726.00;4790817;58;1140809;-76
2023/12/01 09:36:21;;;;;;;90.25;34.25;;;;;;;-5.33;100.00;99731.23;4821653;58;1140812;-74
2023/12/01 09:41:27;;;;;;;84.77;30.82;;;;;;;-5.19;100.00;99731.72;4828227;58;1140687;-75
2023/12/01 09:46:34;;;;;;;72.35;29.48;;;;;;;-5.12;100.00;99735.00;4807789;58;1149102;-74
2023/12/01 09:51:40;;;;;;;99.40;38.43;;;;;;;-5.08;100.00;99747.78;4768246;57;1141759;-75
2023/12/01 09:56:46;;;;;;;80.23;35.70;;;;;;;-4.94;100.00;99747.41;4778037;59;1240258;-74
2023/12/01 10:01:55;;;;;;;97.97;39.07;;;;;;;-4.79;100.00;99747.42;4821974;59;1238370;-75
2023/12/01 10:07:03;;;;;;;950.40;239.93;;;;;;;-4.67;100.00;99744.50;4814447;58;1247646;-68
2023/12/01 10:12:11;;;;;;;484.70;119.17;;;;;;;-4.61;100.00;99737.45;4811248;59;1253267;-66
2023/12/01 10:17:18;;;;;;;126.95;45.30;;;;;;;-4.50;100.00;99739.71;4826937;59;1262891;-66
2023/12/01 10:22:25;;;;;;;210.60;57.70;;;;;;;-4.40;100.00;99740.27;4845922;58;1242387;-66
2023/12/01 10:27:31;;;;;;;274.47;78.87;;;;;;;-4.32;100.00;99732.72;4838417;58;1258767;-67
2023/12/01 10:32:38;;;;;;;122.10;45.17;;;;;;;-4.24;100.00;99729.90;4811011;59;1257251;-67
2023/12/01 10:37:44;;;;;;;115.77;44.03;;;;;;;-4.10;100.00;99714.83;4831159;59;1259235;-66
2023/12/01 10:42:51;;;;;;;136.27;48.07;;;;;;;-3.98;100.00;99714.47;4917200;57;1258965;-67
2023/12/01 10:48:00;;;;;;;85.67;34.53;;;;;;;-3.88;100.00;99717.59;4860264;58;1258561;-68
2023/12/01 10:53:08;;;;;;;88.10;33.90;;;;;;;-3.79;100.00;99717.73;4873659;58;1255953;-68
2023/12/01 10:58:25;;;;;;;53.97;21.93;;;;;;;-3.67;100.00;99709.62;4879411;58;1255282;-67
2023/12/01 11:03:34;;;;;;;64.55;24.75;;;;;;;-3.50;100.00;99711.61;4816557;58;1184114;-67
2023/12/01 11:09:02;;;;;;;73.43;25.50;;;;;;;-3.36;100.00;99712.84;4818184;58;1140830;-67
2023/12/01 11:14:21;;;;;;;201.10;64.07;;;;;;;-3.26;100.00;99714.23;4872008;58;1141044;-68
2023/12/01 11:19:31;;;;;;;60.78;22.62;;;;;;;-3.06;100.00;99714.00;4865538;57;1143052;-67
2023/12/01 11:24:42;;;;;;;50.83;22.10;;;;;;;-2.87;100.00;99713.73;4821143;58;1140779;-66
2023/12/01 11:30:12;;;;;;;79.80;26.03;;;;;;;-2.78;100.00;99717.75;4817518;59;1140876;-67
2023/12/01 11:35:15;;;;;;;47.00;17.83;;;;;;;-2.62;100.00;99707.23;4818166;58;1227299;-67
2023/12/01 11:40:22;;;;;;;34.38;15.55;;;;;;;-2.10;100.00;99701.34;4882715;59;1140870;-67
2023/12/01 11:45:44;;;;;;;64.37;23.80;;;;;;;-2.10;100.00;99701.34;4847902;57;1148899;-67
2023/12/01 11:50:52;;;;;;;45.13;17.53;;;;;;;-1.65;100.00;99708.59;4789444;58;1255352;-67
2023/12/01 11:55:58;;;;;;;43.03;19.93;;;;;;;-1.23;100.00;99704.69;4787549;58;1140832;-67
2023/12/01 12:01:04;;;;;;;52.23;20.13;;;;;;;-0.85;100.00;99708.20;4788295;58;1160311;-67
2023/12/01 12:06:11;;;;;;;39.37;19.20;;;;;;;-0.47;100.00;99697.41;4844757;58;1141407;-67
2023/12/01 12:11:17;;;;;;;50.85;21.33;;;;;;;-0.13;100.00;99696.67;4849676;58;1141084;-67
2023/12/01 12:16:24;;;;;;;48.15;20.88;;;;;;;0.09;100.00;99703.47;4881644;57;1141283;-68
2023/12/01 12:21:31;;;;;;;44.03;20.43;;;;;;;0.27;100.00;99712.53;4840908;57;1138783;-68
2023/12/01 12:26:37;;;;;;;43.17;19.40;;;;;;;0.86;100.00;99711.78;4883875;56;1138916;-68
2023/12/01 12:31:42;;;;;;;39.90;16.27;;;;;;;0.86;100.00;99711.78;4965206;57;1138713;-67
2023/12/01 12:36:50;;;;;;;40.40;18.20;;;;;;;1.05;100.00;99712.08;4946168;57;1138504;-67
2023/12/01 12:41:59;;;;;;;32.55;14.73;;;;;;;1.35;100.00;99712.70;4923323;58;1138848;-67
2023/12/01 12:47:06;;;;;;;37.90;17.20;;;;;;;1.51;100.00;99708.36;4925447;58;1138775;-67
2023/12/01 12:52:11;;;;;;;49.70;24.60;;;;;;;1.64;100.00;99703.33;4905230;59;1140474;-67
2023/12/01 12:57:17;;;;;;;54.90;25.62;;;;;;;1.85;100.00;99700.84;4924476;58;1139040;-67
2023/12/01 13:02:23;;;;;;;44.50;22.02;;;;;;;2.03;100.00;99691.16;4927392;58;1138835;-67
2023/12/01 13:07:29;;;;;;;48.10;20.60;;;;;;;2.27;100.00;99688.50;4973641;57;1138751;-67
2023/12/01 13:12:34;;;;;;;40.00;19.23;;;;;;;2.35;100.00;99695.41;4954462;57;1138589;-67
2023/12/01 13:17:40;;;;;;;36.63;17.37;;;;;;;1.84;100.00;99699.62;5005175;57;1138809;-68
2023/12/01 13:22:45;;;;;;;86.17;38.50;;;;;;;1.04;100.00;99698.67;5024238;57;1138839;-66
2023/12/01 13:27:51;;;;;;;45.23;22.40;;;;;;;0.47;100.00;99703.73;4948769;57;1138816;-67
2023/12/01 13:32:57;;;;;;;75.07;33.43;;;;;;;-0.04;100.00;99703.21;4869000;56;1138891;-67
2023/12/01 13:38:04;;;;;;;50.00;22.87;;;;;;;-0.34;100.00;99709.84;4906376;56;1140936;-68
2023/12/01 13:43:10;;;;;;;64.07;28.63;;;;;;;-0.51;100.00;99704.95;4858483;58;1140863;-67
2023/12/01 13:48:16;;;;;;;65.70;29.77;;;;;;;-0.67;100.00;99709.15;4839285;58;1140866;-67
2023/12/01 13:53:21;;;;;;;56.43;24.57;;;;;;;-0.36;100.00;99706.01;4824371;58;1141359;-67
2023/12/01 13:58:27;;;;;;;52.53;22.30;;;;;;;-0.52;100.00;99712.81;4750546;59;1140918;-68
2023/12/01 14:03:32;;;;;;;50.33;21.73;;;;;;;-0.74;100.00;99733.23;4805711;55;1140759;-67
2023/12/01 14:08:38;;;;;;;51.73;23.00;;;;;;;-0.93;100.00;99732.82;4817192;57;1140932;-67
2023/12/01 14:13:44;;;;;;;53.03;23.23;;;;;;;-1.10;100.00;99743.47;4764600;60;1140767;-67
2023/12/01 14:18:50;;;;;;;61.67;23.10;;;;;;;-1.21;100.00;99741.75;4817805;59;1140913;-81
2023/12/01 14:23:55;;;;;;;51.77;21.33;;;;;;;-1.32;100.00;99740.08;4849003;58;1141161;-82
2023/12/01 14:29:01;;;;;;;62.57;26.27;;;;;;;-1.45;100.00;99747.97;4849567;58;1140665;-87
2023/12/01 14:34:07;;;;;;;61.60;24.23;;;;;;;-1.59;100.00;99755.02;4795756;58;1141409;-82
2023/12/01 14:39:13;;;;;;;61.50;23.87;;;;;;;-1.70;100.00;99749.42;4778782;58;1141125;-87
2023/12/01 14:44:18;;;;;;;71.82;28.12;;;;;;;-1.81;100.00;99753.72;4845564;57;1141092;-78
2023/12/01 14:49:24;;;;;;;64.15;25.80;;;;;;;-1.89;100.00;99754.48;4805788;57;1140882;-79
2023/12/01 14:54:29;;;;;;;74.30;30.10;;;;;;;-1.85;100.00;99766.88;4827747;58;1140905;-77
2023/12/01 14:59:35;;;;;;;93.23;34.83;;;;;;;-1.87;100.00;99772.12;4857470;57;1140911;-84
2023/12/01 15:04:40;;;;;;;64.80;27.73;;;;;;;-1.77;100.00;99764.81;4840606;58;1140724;-81
2023/12/01 15:09:46;;;;;;;69.90;31.80;;;;;;;-1.72;100.00;99769.83;4847971;57;1140947;-83
2023/12/01 15:14:52;;;;;;;69.30;31.00;;;;;;;-1.66;100.00;99775.59;4830461;58;1140672;-86
2023/12/01 15:19:57;;;;;;;70.40;31.57;;;;;;;-1.62;100.00;99777.63;4828618;58;1141079;-83
2023/12/01 15:25:03;;;;;;;73.03;32.67;;;;;;;-1.70;100.00;99783.12;4832274;58;1140865;-77
2023/12/01 15:30:09;;;;;;;105.30;41.17;;;;;;;-1.74;100.00;99771.63;4831078;58;1140871;-74
2023/12/01 15:35:15;;;;;;;132.97;46.45;;;;;;;-1.82;100.00;99786.17;4794600;58;1143288;-81
2023/12/01 15:40:20;;;;;;;147.90;47.50;;;;;;;-1.85;100.00;99789.75;4760713;59;1143065;-74
2023/12/01 15:45:26;;;;;;;154.65;51.90;;;;;;;-1.87;100.00;99788.96;4733612;59;1143072;-76
2023/12/01 15:50:32;;;;;;;178.40;59.90;;;;;;;-1.96;100.00;99794.48;4724002;58;1142968;-71
2023/12/01 15:55:38;;;;;;;181.63;58.03;;;;;;;-2.10;100.00;99770.00;4718957;58;1142842;-71
2023/12/01 16:00:45;;;;;;;185.10;62.33;;;;;;;-2.15;100.00;99768.90;4717816;59;1143029;-69
2023/12/01 16:05:50;;;;;;;218.33;67.33;;;;;;;-2.19;100.00;99788.03;4747842;59;1142791;-71
2023/12/01 16:10:56;;;;;;;217.93;69.90;;;;;;;-2.39;100.00;99793.94;4694968;59;1142854;-70
2023/12/01 16:16:01;;;;;;;229.97;68.20;;;;;;;-2.44;100.00;99792.44;4762652;59;1143152;-75
2023/12/01 16:21:07;;;;;;;186.67;59.87;;;;;;;-2.62;100.00;99776.67;4760711;60;1143510;-77
2023/12/01 16:26:14;;;;;;;206.50;70.27;;;;;;;-2.64;100.00;99789.27;4811375;60;1142854;-77
2023/12/01 16:31:20;;;;;;;224.33;76.63;;;;;;;-2.80;100.00;99804.48;4689594;59;1143039;-77
2023/12/01 16:36:25;;;;;;;245.90;95.92;;;;;;;-2.74;100.00;99813.30;4713964;59;1143593;-75
2023/12/01 16:41:31;;;;;;;264.43;101.33;;;;;;;-2.73;100.00;99811.11;4894976;57;1143073;-79
2023/12/01 16:46:37;;;;;;;304.07;110.70;;;;;;;-2.74;100.00;99808.58;4822634;58;1145136;-76
2023/12/01 16:51:42;;;;;;;515.40;174.60;;;;;;;-2.73;100.00;99811.56;4778773;58;1145087;-79
2023/12/01 16:56:49;;;;;;;502.53;165.90;;;;;;;-2.66;100.00;99810.02;4863625;58;1145048;-76
2023/12/01 17:01:55;;;;;;;511.95;168.47;;;;;;;-2.82;100.00;99824.83;4856519;57;1145167;-76
2023/12/01 17:07:00;;;;;;;556.37;175.00;;;;;;;-3.04;100.00;99828.13;4790023;59;1145107;-76
2023/12/01 17:12:07;;;;;;;429.07;126.70;;;;;;;-2.95;100.00;99824.41;4832183;56;1145110;-76
2023/12/01 17:17:12;;;;;;;370.03;109.13;;;;;;;-2.87;100.00;99816.77;4890156;56;1145227;-76
2023/12/01 17:22:18;;;;;;;333.57;109.20;;;;;;;-2.81;100.00;99823.94;4716377;60;1146931;-75
2023/12/01 17:27:24;;;;;;;321.35;107.10;;;;;;;-2.82;100.00;99840.36;4692046;60;1145228;-74
2023/12/01 17:32:29;;;;;;;305.63;101.67;;;;;;;-2.82;100.00;99839.91;4805471;58;1145417;-75
2023/12/01 17:37:35;;;;;;;288.60;94.50;;;;;;;-2.93;100.00;99849.78;4814910;58;1144976;-75
2023/12/01 17:42:40;;;;;;;308.23;98.03;;;;;;;-2.96;100.00;99858.48;4854284;58;1142873;-75
2023/12/01 17:47:46;;;;;;;249.13;94.07;;;;;;;-2.95;100.00;99863.21;4953437;58;1143015;-75
2023/12/01 17:52:51;;;;;;;318.77;130.00;;;;;;;-2.89;100.00;99869.02;4886526;57;1142992;-75
2023/12/01 17:57:57;;;;;;;239.17;95.10;;;;;;;-2.90;100.00;99845.33;4884832;58;1145192;-75
2023/12/01 18:03:03;;;;;;;203.23;81.17;;;;;;;-2.98;100.00;99847.78;4904058;58;1142862;-75
2023/12/01 18:08:09;;;;;;;192.87;68.17;;;;;;;-3.08;100.00;99836.91;4885107;58;1143072;-75
2023/12/01 18:13:14;;;;;;;198.75;78.52;;;;;;;-3.14;100.00;99852.61;4885489;58;1143068;-75
2023/12/01 18:18:20;;;;;;;277.75;104.43;;;;;;;-3.23;100.00;99856.80;4901449;58;1143069;-75
2023/12/01 18:23:25;;;;;;;298.33;113.73;;;;;;;-3.26;100.00;99860.77;4866964;57;1145343;-75
2023/12/01 18:28:31;;;;;;;326.10;118.70;;;;;;;-3.41;100.00;99864.69;4822907;58;1144883;-76
2023/12/01 18:33:36;;;;;;;292.07;100.73;;;;;;;-3.36;100.00;99861.49;4902099;56;1145056;-75
2023/12/01 18:38:42;;;;;;;263.63;98.47;;;;;;;-3.28;100.00;99874.19;4950620;58;1144830;-75
2023/12/01 18:43:47;;;;;;;300.60;109.23;;;;;;;-3.32;100.00;99875.17;4917829;58;1143007;-75
2023/12/01 18:48:53;;;;;;;239.40;88.63;;;;;;;-3.31;100.00;99870.41;4847623;59;1145151;-75
2023/12/01 18:53:59;;;;;;;252.07;94.47;;;;;;;-3.40;100.00;99879.30;4830563;58;1142789;-75
2023/12/01 18:59:04;;;;;;;175.87;67.43;;;;;;;-3.49;100.00;99870.53;4902219;58;1142827;-76
2023/12/01 19:04:10;;;;;;;467.43;143.63;;;;;;;-3.48;100.00;99859.74;4831227;58;1142881;-75
2023/12/01 19:09:15;;;;;;;476.80;160.50;;;;;;;-3.42;100.00;99846.64;4924952;58;1145014;-73
2023/12/01 19:14:21;;;;;;;294.13;104.70;;;;;;;-3.46;100.00;99849.76;4861201;58;1144931;-74
2023/12/01 19:19:27;;;;;;;279.48;95.20;;;;;;;-3.44;100.00;99849.27;4787269;58;1145049;-75
2023/12/01 19:24:32;;;;;;;296.07;99.05;;;;;;;-3.35;100.00;99856.72;4847203;58;1143147;-76
2023/12/01 19:29:38;;;;;;;286.85;98.45;;;;;;;-3.37;100.00;99857.25;4874584;57;1142763;-75
2023/12/01 19:34:44;;;;;;;287.47;103.70;;;;;;;-3.30;100.00;99853.55;4927266;58;1143169;-74
2023/12/01 19:39:50;;;;;;;270.80;94.67;;;;;;;-3.31;100.00;99847.98;4918931;58;1144907;-73
2023/12/01 19:44:55;;;;;;;288.40;100.70;;;;;;;-3.33;100.00;99855.38;4897338;58;1142899;-74
2023/12/01 19:50:01;;;;;;;292.93;100.40;;;;;;;-3.30;100.00;99863.05;4922968;58;1144927;-74
2023/12/01 19:55:07;;;;;;;349.40;117.87;;;;;;;-3.28;100.00;99870.31;4935540;58;1145090;-76
2023/12/01 20:00:14;;;;;;;358.87;110.67;;;;;;;-3.48;100.00;99865.76;4936331;58;1145102;-74
2023/12/01 20:05:20;;;;;;;591.03;181.33;;;;;;;-3.73;100.00;99863.08;4925289;58;1145089;-75
2023/12/01 20:10:25;;;;;;;530.30;161.90;;;;;;;-3.74;100.00;99888.97;4929180;58;1145092;-74
2023/12/01 20:15:31;;;;;;;584.67;180.67;;;;;;;-3.74;100.00;99891.10;4949251;58;1145138;-73
2023/12/01 20:20:37;;;;;;;430.53;141.03;;;;;;;-3.77;100.00;99894.22;4932013;58;1145159;-72
2023/12/01 20:25:43;;;;;;;454.17;156.17;;;;;;;-3.75;100.00;99882.10;4918983;58;1145015;-73
2023/12/01 20:30:48;;;;;;;429.70;142.57;;;;;;;-3.84;100.00;99878.06;4913540;58;1145102;-73
2023/12/01 20:35:54;;;;;;;384.10;126.87;;;;;;;-3.98;100.00;99864.70;4894014;58;1144852;-73
2023/12/01 20:41:02;;;;;;;294.80;97.40;;;;;;;-3.96;100.00;99859.88;4856210;58;1144903;-73
2023/12/01 20:46:15;;;;;;;250.23;87.43;;;;;;;-3.94;100.00;99868.42;4850239;58;1143178;-74
2023/12/01 20:51:21;;;;;;;279.90;95.00;;;;;;;-3.83;100.00;99854.38;4909255;59;1142927;-73
2023/12/01 20:56:27;;;;;;;297.63;97.43;;;;;;;-3.87;100.00;99857.48;4837442;58;1142978;-73
2023/12/01 21:01:32;;;;;;;350.63;111.73;;;;;;;-3.88;100.00;99857.53;4892782;58;1142937;-74
2023/12/01 21:06:38;;;;;;;424.90;133.37;;;;;;;-3.86;100.00;99876.41;4911185;58;1145133;-74
2023/12/01 21:11:44;;;;;;;398.27;128.17;;;;;;;-4.06;100.00;99872.66;4826481;58;1144796;-74
2023/12/01 21:16:49;;;;;;;431.57;137.57;;;;;;;-4.08;100.00;99869.72;4794230;59;1145109;-74
2023/12/01 21:21:55;;;;;;;411.60;131.80;;;;;;;-4.07;100.00;99854.19;4866241;58;1145127;-69
2023/12/01 21:27:00;;;;;;;332.90;115.07;;;;;;;-4.07;100.00;99855.47;4757803;59;1144939;-69
2023/12/01 21:32:06;;;;;;;346.93;116.47;;;;;;;-3.98;100.00;99854.38;4786656;58;1144902;-71
2023/12/01 21:37:12;;;;;;;387.23;131.15;;;;;;;-3.95;100.00;99877.06;4793800;58;1144890;-70
2023/12/01 21:42:17;;;;;;;288.23;103.67;;;;;;;-3.98;100.00;99872.45;4832962;57;1144832;-69
2023/12/01 21:47:24;;;;;;;290.37;100.23;;;;;;;-4.08;100.00;99868.42;4793238;59;1145337;-70
2023/12/01 21:52:30;;;;;;;329.57;110.07;;;;;;;-4.10;100.00;99865.03;4840539;59;1144856;-70
2023/12/01 21:57:36;;;;;;;253.27;92.83;;;;;;;-4.01;100.00;99859.18;4880267;59;1145154;-70
2023/12/01 22:02:45;;;;;;;345.75;108.95;;;;;;;-3.91;100.00;99867.05;4870904;58;1143080;-70
2023/12/01 22:07:50;;;;;;;375.77;121.13;;;;;;;-4.00;100.00;99876.81;4780956;59;1144973;-74
2023/12/01 22:12:56;;;;;;;240.60;86.30;;;;;;;-4.36;100.00;99883.84;4805863;59;1145075;-73
2023/12/01 22:18:02;;;;;;;408.40;141.93;;;;;;;-4.41;100.00;99885.25;4792549;59;1142602;-74
2023/12/01 22:23:08;;;;;;;285.20;96.50;;;;;;;-4.35;100.00;99878.64;4823830;59;1145079;-73
2023/12/01 22:28:13;;;;;;;348.20;101.78;;;;;;;-4.27;100.00;99888.30;4717287;59;1142935;-74